createdAt,value
2022-12-19T00:02:00.911Z,0.70
2022-12-19T00:04:30.490Z,0.70
2022-12-19T00:06:59.803Z,0.70
2022-12-19T00:09:28.468Z,0.80
2022-12-19T00:11:56.456Z,0.80
2022-12-19T00:14:26.017Z,0.90
2022-12-19T00:16:55.004Z,0.90
2022-12-19T00:19:22.971Z,0.90
2022-12-19T00:21:50.989Z,0.90
2022-12-19T00:24:21.203Z,1.00
2022-12-19T00:26:50.742Z,1.00
2022-12-19T00:29:18.900Z,1.10
2022-12-19T00:31:49.696Z,1.10
2022-12-19T00:34:17.829Z,1.20
2022-12-19T00:36:46.005Z,1.20
2022-12-19T00:39:14.014Z,1.20
2022-12-19T00:41:43.059Z,1.40
2022-12-19T00:44:16.018Z,1.20
2022-12-19T00:46:50.271Z,1.10
2022-12-19T00:49:22.830Z,1.00
2022-12-19T00:51:50.935Z,1.10
2022-12-19T00:54:19.121Z,1.10
2022-12-19T00:56:47.670Z,1.10
2022-12-19T00:59:17.119Z,1.10
2022-12-19T01:01:52.176Z,1.00
2022-12-19T01:04:28.840Z,1.10
2022-12-19T01:07:01.739Z,1.10
2022-12-19T01:09:31.330Z,1.20
2022-12-19T01:12:31.885Z,1.20
2022-12-19T01:15:04.908Z,1.30
2022-12-19T01:17:38.725Z,1.10
2022-12-19T01:20:12.537Z,1.10
2022-12-19T01:22:41.893Z,1.10
2022-12-19T01:25:10.316Z,1.10
2022-12-19T01:27:38.531Z,1.10
2022-12-19T01:30:08.150Z,1.10
2022-12-19T01:32:36.259Z,1.10
2022-12-19T01:35:04.912Z,1.10
2022-12-19T01:37:32.907Z,1.10
2022-12-19T01:40:02.334Z,1.10
2022-12-19T01:42:37.740Z,1.10
2022-12-19T01:45:33.935Z,1.10
2022-12-19T01:48:08.515Z,1.10
2022-12-19T01:50:56.022Z,1.10
2022-12-19T01:53:32.710Z,1.10
2022-12-19T01:56:09.049Z,1.20
2022-12-19T01:58:39.197Z,1.00
2022-12-19T02:01:07.289Z,1.20
2022-12-19T02:03:38.995Z,1.10
2022-12-19T02:06:08.830Z,1.10
2022-12-19T02:08:37.570Z,1.10
2022-12-19T02:11:07.232Z,1.10
2022-12-19T02:13:35.634Z,1.20
2022-12-19T02:16:14.474Z,1.20
2022-12-19T02:18:52.943Z,1.20
2022-12-19T02:21:31.721Z,1.30
2022-12-19T02:24:30.405Z,1.30
2022-12-19T02:27:40.401Z,1.30
2022-12-19T02:30:12.296Z,1.30
2022-12-19T02:32:55.747Z,1.20
2022-12-19T02:35:32.233Z,1.30
2022-12-19T02:38:13.205Z,1.30
2022-12-19T02:40:44.816Z,1.40
2022-12-19T02:43:16.313Z,1.40
2022-12-19T02:45:46.221Z,1.30
2022-12-19T02:48:19.221Z,1.40
2022-12-19T02:50:49.973Z,1.30
2022-12-19T02:53:23.555Z,1.30
2022-12-19T02:56:10.582Z,1.30
2022-12-19T02:58:59.440Z,1.30
2022-12-19T03:01:39.807Z,1.20
2022-12-19T03:04:21.145Z,1.20
2022-12-19T03:06:54.424Z,1.20
2022-12-19T03:09:32.422Z,1.20
2022-12-19T03:12:06.532Z,1.00
2022-12-19T03:14:36.122Z,1.20
2022-12-19T03:17:06.964Z,1.30
2022-12-19T03:19:37.231Z,1.20
2022-12-19T03:22:05.409Z,1.30
2022-12-19T03:24:33.431Z,1.20
2022-12-19T03:27:09.720Z,1.40
2022-12-19T03:29:43.601Z,1.30
2022-12-19T03:32:15.226Z,1.40
2022-12-19T03:34:50.333Z,1.40
2022-12-19T03:37:21.715Z,1.40
2022-12-19T03:39:54.280Z,1.50
2022-12-19T03:42:54.176Z,1.40
2022-12-19T03:45:30.401Z,1.50
2022-12-19T03:48:01.508Z,1.60
2022-12-19T03:50:36.515Z,1.60
2022-12-19T03:53:15.281Z,1.50
2022-12-19T03:55:48.724Z,1.60
2022-12-19T03:58:24.398Z,1.50
2022-12-19T04:00:53.243Z,1.40
2022-12-19T04:03:23.210Z,1.40
2022-12-19T04:05:54.292Z,1.60
2022-12-19T04:08:23.861Z,1.40
2022-12-19T04:10:56.859Z,1.50
2022-12-19T04:13:30.077Z,1.30
2022-12-19T04:16:06.905Z,1.30
2022-12-19T04:18:35.926Z,1.20
2022-12-19T04:21:10.038Z,1.20
2022-12-19T04:23:42.658Z,1.30
2022-12-19T04:26:12.144Z,1.30
2022-12-19T04:28:44.781Z,1.40
2022-12-19T04:31:14.668Z,1.20
2022-12-19T04:33:43.223Z,1.30
2022-12-19T04:36:13.393Z,1.30
2022-12-19T04:38:41.499Z,1.30
2022-12-19T04:41:09.615Z,1.30
2022-12-19T04:43:37.761Z,1.40
2022-12-19T04:46:05.955Z,1.40
2022-12-19T04:48:36.254Z,1.50
2022-12-19T04:51:04.742Z,1.40
2022-12-19T04:53:34.470Z,1.60
2022-12-19T04:56:03.457Z,1.60
2022-12-19T04:58:31.768Z,1.80
2022-12-19T05:01:02.743Z,1.80
2022-12-19T05:03:30.876Z,1.80
2022-12-19T05:06:06.196Z,1.90
2022-12-19T05:08:36.874Z,1.90
2022-12-19T05:11:06.656Z,2.00
2022-12-19T05:13:34.905Z,2.00
2022-12-19T05:16:05.282Z,2.10
2022-12-19T05:18:33.706Z,2.00
2022-12-19T05:21:02.017Z,2.00
2022-12-19T05:23:30.646Z,2.10
2022-12-19T05:26:01.281Z,2.10
2022-12-19T05:28:29.614Z,2.10
2022-12-19T05:31:05.183Z,2.20
2022-12-19T05:33:33.213Z,2.10
2022-12-19T05:36:02.645Z,2.20
2022-12-19T05:38:30.820Z,2.10
2022-12-19T05:41:01.605Z,2.10
2022-12-19T05:43:29.701Z,2.10
2022-12-19T05:45:57.691Z,2.00
2022-12-19T05:48:25.736Z,1.90
2022-12-19T05:50:53.731Z,2.00
2022-12-19T05:53:25.870Z,2.00
2022-12-19T05:55:54.359Z,2.00
2022-12-19T05:58:23.730Z,2.00
2022-12-19T06:00:53.351Z,2.00
2022-12-19T06:03:22.936Z,1.90
2022-12-19T06:05:51.014Z,1.90
2022-12-19T06:08:19.005Z,1.80
2022-12-19T06:10:46.998Z,1.70
2022-12-19T06:13:15.228Z,1.70
2022-12-19T06:15:44.545Z,1.60
2022-12-19T06:18:12.503Z,1.60
2022-12-19T06:20:40.513Z,1.50
2022-12-19T06:23:08.532Z,1.50
2022-12-19T06:25:37.051Z,1.40
2022-12-19T06:28:05.845Z,1.40
2022-12-19T06:30:33.851Z,1.40
2022-12-19T06:33:03.481Z,1.30
2022-12-19T06:35:31.453Z,1.30
2022-12-19T06:38:01.007Z,1.30
2022-12-19T06:40:46.487Z,1.30
2022-12-19T06:43:14.492Z,1.30
2022-12-19T06:45:42.536Z,1.40
2022-12-19T06:48:11.866Z,1.40
2022-12-19T06:50:39.863Z,1.40
2022-12-19T06:53:07.906Z,1.40
2022-12-19T06:55:37.593Z,1.70
2022-12-19T06:58:05.661Z,1.50
2022-12-19T07:00:39.832Z,1.50
2022-12-19T07:03:16.581Z,1.60
2022-12-19T07:05:44.990Z,1.60
2022-12-19T07:08:13.586Z,1.70
2022-12-19T07:10:41.684Z,1.70
2022-12-19T07:13:09.692Z,1.70
2022-12-19T07:15:38.158Z,1.80
2022-12-19T07:18:07.909Z,1.90
2022-12-19T07:20:44.774Z,1.90
2022-12-19T07:23:16.427Z,1.90
2022-12-19T07:25:44.424Z,2.00
2022-12-19T07:28:15.794Z,2.10
2022-12-19T07:30:43.858Z,2.20
2022-12-19T07:33:13.615Z,2.30
2022-12-19T07:35:46.576Z,2.30
2022-12-19T07:38:14.639Z,2.40
2022-12-19T07:40:42.759Z,2.40
2022-12-19T07:43:11.628Z,2.50
2022-12-19T07:45:40.173Z,2.60
2022-12-19T07:48:08.804Z,2.60
2022-12-19T07:50:36.998Z,2.60
2022-12-19T07:53:06.405Z,2.80
2022-12-19T07:55:34.642Z,2.80
2022-12-19T07:58:02.850Z,2.80
2022-12-19T08:00:31.674Z,2.90
2022-12-19T08:03:00.356Z,3.00
2022-12-19T08:05:28.529Z,3.00
2022-12-19T08:07:56.953Z,3.10
2022-12-19T08:10:26.394Z,3.20
2022-12-19T08:12:54.412Z,3.20
2022-12-19T08:15:22.419Z,3.30
2022-12-19T08:17:50.565Z,3.30
2022-12-19T08:20:19.281Z,3.40
2022-12-19T08:22:47.365Z,3.40
2022-12-19T08:25:16.225Z,3.50
2022-12-19T08:27:45.649Z,3.50
2022-12-19T08:30:14.908Z,3.60
2022-12-19T08:32:44.979Z,3.60
2022-12-19T08:35:13.089Z,3.60
2022-12-19T08:37:41.171Z,3.70
2022-12-19T08:40:10.548Z,3.80
2022-12-19T08:42:38.796Z,3.90
2022-12-19T08:45:11.464Z,3.90
2022-12-19T08:47:39.766Z,4.00
2022-12-19T08:50:08.841Z,4.00
2022-12-19T08:52:37.455Z,4.10
2022-12-19T08:55:11.067Z,4.10
2022-12-19T08:57:39.102Z,4.20
2022-12-19T09:00:10.436Z,4.20
2022-12-19T09:02:40.233Z,4.40
2022-12-19T09:06:03.749Z,4.40
2022-12-19T09:07:58.702Z,4.50
2022-12-19T09:10:27.473Z,4.60
2022-12-19T09:12:57.350Z,4.60
2022-12-19T09:15:27.707Z,4.70
2022-12-19T09:17:55.908Z,4.70
2022-12-19T09:20:25.064Z,4.70
2022-12-19T09:22:54.471Z,4.80
2022-12-19T09:25:22.688Z,4.80
2022-12-19T09:28:25.851Z,4.90
2022-12-19T09:30:40.294Z,4.90
2022-12-19T09:33:08.738Z,4.90
2022-12-19T09:35:37.952Z,5.00
2022-12-19T09:38:06.477Z,5.00
2022-12-19T09:40:50.592Z,5.10
2022-12-19T09:43:39.588Z,5.00
2022-12-19T09:46:19.087Z,5.40
2022-12-19T09:48:54.381Z,5.10
2022-12-19T09:51:34.708Z,5.10
2022-12-19T09:54:08.525Z,5.20
2022-12-19T09:56:46.492Z,5.20
2022-12-19T09:59:29.573Z,5.20
2022-12-19T10:02:27.534Z,5.20
2022-12-19T10:05:16.840Z,5.20
2022-12-19T10:08:08.525Z,5.20
2022-12-19T10:12:36.204Z,5.20
2022-12-19T10:13:52.100Z,5.10
2022-12-19T10:16:32.334Z,5.20
2022-12-19T10:19:08.491Z,5.30
2022-12-19T10:25:09.070Z,5.40
2022-12-19T10:27:59.267Z,5.40
2022-12-19T10:30:31.848Z,5.30
2022-12-19T10:33:11.600Z,5.30
2022-12-19T10:35:53.213Z,5.30
2022-12-19T10:38:30.290Z,5.30
2022-12-19T10:41:15.429Z,5.30
2022-12-19T10:43:52.626Z,5.30
2022-12-19T10:46:38.278Z,5.20
2022-12-19T10:49:14.290Z,5.30
2022-12-19T10:51:53.330Z,5.20
2022-12-19T10:54:21.520Z,5.20
2022-12-19T10:56:50.756Z,5.00
2022-12-19T10:59:21.691Z,5.10
2022-12-19T11:02:00.490Z,5.10
2022-12-19T11:04:34.245Z,5.10
2022-12-19T11:07:20.514Z,5.10
2022-12-19T11:10:09.197Z,5.10
2022-12-19T11:17:10.920Z,5.20
2022-12-19T11:19:01.819Z,5.30
2022-12-19T11:27:18.422Z,5.30
2022-12-19T11:29:30.942Z,5.30
2022-12-19T11:29:54.113Z,5.30
2022-12-19T11:30:47.107Z,5.30
2022-12-19T11:32:44.444Z,5.30
2022-12-19T11:35:24.421Z,5.30
2022-12-19T11:37:56.729Z,5.20
2022-12-19T11:40:34.057Z,5.20
2022-12-19T11:43:43.040Z,5.40
2022-12-19T11:46:04.204Z,5.40
2022-12-19T11:48:42.562Z,5.50
2022-12-19T11:51:21.506Z,5.50
2022-12-19T11:53:58.394Z,5.50
2022-12-19T11:56:31.215Z,5.50
2022-12-19T11:59:02.573Z,5.50
2022-12-19T12:01:46.965Z,5.50
2022-12-19T12:04:33.060Z,5.50
2022-12-19T12:07:03.291Z,5.50
2022-12-19T12:11:56.856Z,5.70
2022-12-19T12:17:28.970Z,5.50
2022-12-19T12:30:49.319Z,5.50
2022-12-19T12:31:17.626Z,5.50
2022-12-19T12:31:28.856Z,5.50
2022-12-19T12:31:43.768Z,5.50
2022-12-19T12:32:04.206Z,5.50
2022-12-19T12:37:08.195Z,5.50
2022-12-19T12:39:18.227Z,5.30
2022-12-19T12:42:06.414Z,5.40
2022-12-19T12:44:45.491Z,5.30
2022-12-19T12:47:20.523Z,5.30
2022-12-19T12:49:52.770Z,5.30
2022-12-19T12:52:25.557Z,5.30
2022-12-19T12:54:55.386Z,5.30
2022-12-19T12:57:36.257Z,5.20
2022-12-19T13:00:21.014Z,5.20
2022-12-19T13:02:55.630Z,5.20
2022-12-19T13:05:52.643Z,5.40
2022-12-19T13:08:37.820Z,5.30
2022-12-19T13:11:08.003Z,5.30
2022-12-19T13:13:54.910Z,5.30
2022-12-19T13:16:53.523Z,5.30
2022-12-19T13:19:28.855Z,5.40
2022-12-19T13:22:40.888Z,5.40
2022-12-19T13:25:46.282Z,5.50
2022-12-19T13:28:40.080Z,5.50
2022-12-19T13:31:23.424Z,5.60
2022-12-19T13:34:18.720Z,5.60
2022-12-19T13:39:49.773Z,5.70
2022-12-19T13:40:07.430Z,5.70
2022-12-19T13:43:09.893Z,5.70
2022-12-19T13:45:43.235Z,5.70
2022-12-19T13:48:18.391Z,5.70
2022-12-19T13:50:49.465Z,5.70
2022-12-19T13:53:21.398Z,5.70
2022-12-19T13:55:50.846Z,5.70
2022-12-19T13:58:29.323Z,5.60
2022-12-19T14:01:04.080Z,5.70
2022-12-19T14:03:38.533Z,5.80
2022-12-19T14:06:19.723Z,5.80
2022-12-19T14:08:59.242Z,5.80
2022-12-19T14:12:27.828Z,5.80
2022-12-19T14:14:58.031Z,5.80
2022-12-19T14:17:37.880Z,5.70
2022-12-19T14:22:01.498Z,5.70
2022-12-19T14:23:07.334Z,5.70
2022-12-19T14:28:20.123Z,5.50
2022-12-19T14:28:42.329Z,5.50
2022-12-19T14:31:16.064Z,5.40
2022-12-19T14:34:04.624Z,5.40
2022-12-19T14:36:53.231Z,5.30
2022-12-19T14:39:29.474Z,5.30
2022-12-19T14:42:20.461Z,5.20
2022-12-19T14:53:17.499Z,5.30
2022-12-19T14:54:01.315Z,5.20
2022-12-19T14:54:26.481Z,5.20
2022-12-19T14:58:07.831Z,5.10
2022-12-19T15:01:10.131Z,5.10
2022-12-19T15:03:21.562Z,5.00
2022-12-19T15:05:50.286Z,4.90
2022-12-19T15:10:40.863Z,4.80
2022-12-19T15:11:53.621Z,4.80
2022-12-19T15:14:51.907Z,4.80
2022-12-19T15:17:28.824Z,4.70
2022-12-19T15:19:57.080Z,4.60
2022-12-19T15:22:25.362Z,4.60
2022-12-19T15:24:54.777Z,4.70
2022-12-19T15:27:24.340Z,4.70
2022-12-19T15:29:54.090Z,4.60
2022-12-19T15:32:22.374Z,4.60
2022-12-19T15:34:51.870Z,4.90
2022-12-19T15:37:20.476Z,4.70
2022-12-19T15:39:48.724Z,4.60
2022-12-19T15:42:20.026Z,4.60
2022-12-19T15:44:49.806Z,4.50
2022-12-19T15:47:23.626Z,4.40
2022-12-19T15:49:53.350Z,4.40
2022-12-19T15:52:22.864Z,4.30
2022-12-19T15:54:51.697Z,4.30
2022-12-19T15:57:29.536Z,4.20
2022-12-19T16:00:01.673Z,4.20
2022-12-19T16:03:20.451Z,4.20
2022-12-19T16:05:26.107Z,4.20
2022-12-19T16:07:54.915Z,4.10
2022-12-19T16:10:23.818Z,4.10
2022-12-19T16:12:56.869Z,4.00
2022-12-19T16:15:28.353Z,4.00
2022-12-19T16:18:00.353Z,4.00
2022-12-19T16:20:31.152Z,4.10
2022-12-19T16:22:59.810Z,4.10
2022-12-19T16:25:36.463Z,4.10
2022-12-19T16:28:08.083Z,4.10
2022-12-19T16:30:37.699Z,4.30
2022-12-19T16:33:20.314Z,4.20
2022-12-19T16:36:06.583Z,4.20
2022-12-19T16:38:36.311Z,4.10
2022-12-19T16:41:05.162Z,4.30
2022-12-19T16:43:37.658Z,4.10
2022-12-19T16:46:08.112Z,4.20
2022-12-19T16:48:38.016Z,4.10
2022-12-19T16:51:06.289Z,4.20
2022-12-19T16:53:35.915Z,4.30
2022-12-19T16:56:05.486Z,4.30
2022-12-19T16:58:38.282Z,4.30
2022-12-19T17:01:11.843Z,4.30
2022-12-19T17:03:44.734Z,4.30
2022-12-19T17:06:14.324Z,4.30
2022-12-19T17:08:42.485Z,4.40
2022-12-19T17:11:19.282Z,4.40
2022-12-19T17:13:50.465Z,4.50
2022-12-19T17:16:19.455Z,4.60
2022-12-19T17:18:49.663Z,4.80
2022-12-19T17:21:19.309Z,4.90
2022-12-19T17:23:47.788Z,5.00
2022-12-19T17:26:18.197Z,5.10
2022-12-19T17:28:48.386Z,5.10
2022-12-19T17:31:23.091Z,5.20
2022-12-19T17:33:53.756Z,5.30
2022-12-19T17:36:26.049Z,5.30
2022-12-19T17:38:55.763Z,5.30
2022-12-19T17:41:25.667Z,5.30
2022-12-19T17:43:53.887Z,5.30
2022-12-19T17:46:24.775Z,5.30
2022-12-19T17:48:55.277Z,5.20
2022-12-19T17:51:24.748Z,5.20
2022-12-19T17:53:53.352Z,5.20
2022-12-19T17:56:22.231Z,5.10
2022-12-19T17:58:52.750Z,5.10
2022-12-19T18:01:23.725Z,5.00
2022-12-19T18:03:57.874Z,5.00
2022-12-19T18:06:26.381Z,5.00
2022-12-19T18:08:55.308Z,5.00
2022-12-19T18:11:25.979Z,5.30
2022-12-19T18:13:54.843Z,4.90
2022-12-19T18:16:27.337Z,5.00
2022-12-19T18:18:57.754Z,5.00
2022-12-19T18:21:26.111Z,5.00
2022-12-19T18:23:55.305Z,5.00
2022-12-19T18:26:24.001Z,5.00
2022-12-19T18:28:54.827Z,5.00
2022-12-19T18:31:27.267Z,5.00
2022-12-19T18:34:06.956Z,4.90
2022-12-19T18:36:40.259Z,4.90
2022-12-19T18:39:20.762Z,4.80
2022-12-19T18:41:50.508Z,4.80
2022-12-19T18:44:18.818Z,4.80
2022-12-19T18:46:49.821Z,4.90
2022-12-19T18:49:20.218Z,4.70
2022-12-19T18:51:49.357Z,4.80
2022-12-19T18:54:21.195Z,4.80
2022-12-19T18:56:50.291Z,4.80
2022-12-19T18:59:22.347Z,4.80
2022-12-19T19:01:53.375Z,4.90
2022-12-19T19:04:24.017Z,4.90
2022-12-19T19:06:55.377Z,5.00
2022-12-19T19:09:27.832Z,5.00
2022-12-19T19:11:58.383Z,5.00
2022-12-19T19:14:27.609Z,5.00
2022-12-19T19:16:59.260Z,5.00
2022-12-19T19:19:31.168Z,4.90
2022-12-19T19:22:00.181Z,4.90
2022-12-19T19:24:30.783Z,4.80
2022-12-19T19:27:00.302Z,4.80
2022-12-19T19:29:31.189Z,4.90
2022-12-19T19:31:59.787Z,4.90
2022-12-19T19:34:33.440Z,4.90
2022-12-19T19:37:05.155Z,5.00
2022-12-19T19:39:34.792Z,5.00
2022-12-19T19:42:03.293Z,5.10
2022-12-19T19:44:32.632Z,5.10
2022-12-19T19:47:04.110Z,5.10
2022-12-19T19:49:37.299Z,5.10
2022-12-19T19:52:07.923Z,5.10
2022-12-19T19:54:40.280Z,5.20
2022-12-19T19:57:10.781Z,5.20
2022-12-19T19:59:40.202Z,5.10
2022-12-19T20:02:11.713Z,5.10
2022-12-19T20:04:44.505Z,5.00
2022-12-19T20:07:16.692Z,5.00
2022-12-19T20:09:49.676Z,4.90
2022-12-19T20:12:21.312Z,4.80
2022-12-19T20:14:52.256Z,4.70
2022-12-19T20:17:20.945Z,4.70
2022-12-19T20:19:52.191Z,4.70
2022-12-19T20:22:22.108Z,4.70
2022-12-19T20:24:55.262Z,4.80
2022-12-19T20:27:24.934Z,4.80
2022-12-19T20:29:54.491Z,5.00
2022-12-19T20:32:24.580Z,5.10
2022-12-19T20:34:59.919Z,5.20
2022-12-19T20:37:30.404Z,5.20
2022-12-19T20:39:59.671Z,5.30
2022-12-19T20:42:29.341Z,5.40
2022-12-19T20:44:58.691Z,5.50
2022-12-19T20:47:27.597Z,5.60
2022-12-19T20:49:59.301Z,5.70
2022-12-19T20:52:28.237Z,5.80
2022-12-19T20:54:57.082Z,5.90
2022-12-19T20:57:25.790Z,5.90
2022-12-19T20:59:56.145Z,5.90
2022-12-19T21:02:24.958Z,6.00
2022-12-19T21:04:54.175Z,6.00
2022-12-19T21:07:25.248Z,6.10
2022-12-19T21:09:55.076Z,6.10
2022-12-19T21:12:24.856Z,6.10
2022-12-19T21:14:54.693Z,6.00
2022-12-19T21:17:24.423Z,6.00
2022-12-19T21:19:56.140Z,5.90
2022-12-19T21:22:27.497Z,5.80
2022-12-19T21:24:57.717Z,5.70
2022-12-19T21:27:26.176Z,5.70
2022-12-19T21:29:56.555Z,5.70
2022-12-19T21:32:26.468Z,5.70
2022-12-19T21:34:58.134Z,5.70
2022-12-19T21:37:29.125Z,5.70
2022-12-19T21:39:58.035Z,5.70
2022-12-19T21:42:26.582Z,5.80
2022-12-19T21:44:57.119Z,5.80
2022-12-19T21:47:27.703Z,5.80
2022-12-19T21:49:56.656Z,5.90
2022-12-19T21:52:30.224Z,5.90
2022-12-19T21:55:00.148Z,6.00
2022-12-19T21:57:30.235Z,5.80
2022-12-19T21:59:58.670Z,5.80
2022-12-19T22:02:27.656Z,5.70
2022-12-19T22:04:56.133Z,5.70
2022-12-19T22:07:25.321Z,5.60
2022-12-19T22:09:55.286Z,5.70
2022-12-19T22:12:24.372Z,5.70
2022-12-19T22:14:55.328Z,5.70
2022-12-19T22:17:23.925Z,5.80
2022-12-19T22:19:52.233Z,5.80
2022-12-19T22:22:20.573Z,5.80
2022-12-19T22:24:48.905Z,5.80
2022-12-19T22:27:18.836Z,5.80
2022-12-19T22:29:47.405Z,5.80
2022-12-19T22:32:15.967Z,5.90
2022-12-19T22:34:44.199Z,5.90
2022-12-19T22:37:12.529Z,5.90
2022-12-19T22:39:41.249Z,5.90
2022-12-19T22:42:10.233Z,5.90
2022-12-19T22:44:40.713Z,5.90
2022-12-19T22:47:09.099Z,5.90
2022-12-19T22:49:38.577Z,5.90
2022-12-19T22:52:07.212Z,5.90
2022-12-19T22:54:36.143Z,5.90
2022-12-19T22:57:04.818Z,6.00
2022-12-19T22:59:33.239Z,6.10
2022-12-19T23:02:04.133Z,6.10
2022-12-19T23:04:32.914Z,6.30
2022-12-19T23:07:01.992Z,6.40
2022-12-19T23:09:30.717Z,6.40
2022-12-19T23:11:59.854Z,6.40
2022-12-19T23:14:27.938Z,6.40
2022-12-19T23:16:56.385Z,6.40
2022-12-19T23:19:26.068Z,6.50
2022-12-19T23:21:54.766Z,6.60
2022-12-19T23:24:24.053Z,7.00
2022-12-19T23:26:54.485Z,7.40
2022-12-19T23:29:22.931Z,7.70
2022-12-19T23:31:52.358Z,7.80
2022-12-19T23:34:20.670Z,8.00
2022-12-19T23:39:38.333Z,8.40
2022-12-19T23:42:06.758Z,8.70
2022-12-19T23:44:35.415Z,8.80
2022-12-19T23:47:04.298Z,8.90
2022-12-19T23:49:33.753Z,9.00
2022-12-19T23:52:03.482Z,9.20
2022-12-19T23:54:31.861Z,9.30
2022-12-19T23:57:00.098Z,9.40
2022-12-19T23:59:28.130Z,9.60
